createdAt,value
2022-08-29T00:00:43.169Z,0.00
2022-08-29T00:01:43.806Z,0.00
2022-08-29T00:02:43.175Z,0.00
2022-08-29T00:03:43.779Z,0.00
2022-08-29T00:04:43.182Z,0.00
2022-08-29T00:05:43.118Z,0.00
2022-08-29T00:06:46.007Z,0.00
2022-08-29T00:07:45.002Z,0.00
2022-08-29T00:08:43.733Z,0.00
2022-08-29T00:09:43.052Z,0.00
2022-08-29T00:10:43.719Z,0.00
2022-08-29T00:11:45.302Z,0.00
2022-08-29T00:12:43.699Z,0.00
2022-08-29T00:13:43.107Z,0.00
2022-08-29T00:14:43.060Z,0.00
2022-08-29T00:15:45.198Z,0.00
2022-08-29T00:16:43.006Z,0.00
2022-08-29T00:17:43.641Z,0.00
2022-08-29T00:18:43.000Z,0.00
2022-08-29T00:19:43.621Z,0.00
2022-08-29T00:20:43.091Z,0.00
2022-08-29T00:21:43.052Z,0.00
2022-08-29T00:22:43.011Z,0.00
2022-08-29T00:23:42.951Z,0.00
2022-08-29T00:24:42.953Z,0.00
2022-08-29T00:25:44.856Z,0.00
2022-08-29T00:26:43.541Z,0.00
2022-08-29T00:27:45.215Z,0.00
2022-08-29T00:28:44.523Z,0.00
2022-08-29T00:29:43.521Z,0.00
2022-08-29T00:30:43.500Z,0.00
2022-08-29T00:31:42.944Z,0.00
2022-08-29T00:32:43.474Z,0.00
2022-08-29T00:33:42.795Z,0.00
2022-08-29T00:34:43.458Z,0.00
2022-08-29T00:35:42.825Z,0.00
2022-08-29T00:36:48.904Z,0.00
2022-08-29T00:37:44.656Z,0.00
2022-08-29T00:38:42.756Z,0.00
2022-08-29T00:39:44.135Z,0.00
2022-08-29T00:40:42.817Z,0.00
2022-08-29T00:41:44.377Z,0.00
2022-08-29T00:42:42.726Z,0.00
2022-08-29T00:43:43.357Z,0.00
2022-08-29T00:44:43.337Z,0.00
2022-08-29T00:45:42.738Z,0.00
2022-08-29T00:46:45.067Z,0.00
2022-08-29T00:47:42.647Z,0.00
2022-08-29T00:48:43.310Z,0.00
2022-08-29T00:49:43.320Z,0.00
2022-08-29T00:50:43.278Z,0.00
2022-08-29T00:51:42.589Z,0.00
2022-08-29T00:52:45.038Z,0.00
2022-08-29T00:53:42.581Z,0.00
2022-08-29T00:54:43.241Z,0.00
2022-08-29T00:55:43.219Z,0.00
2022-08-29T00:56:43.570Z,0.00
2022-08-29T00:57:42.555Z,0.00
2022-08-29T00:58:43.190Z,0.00
2022-08-29T00:59:43.183Z,0.00
2022-08-29T01:00:42.573Z,0.00
2022-08-29T01:01:44.983Z,0.00
2022-08-29T01:02:43.938Z,0.00
2022-08-29T01:03:43.317Z,0.00
2022-08-29T01:04:42.476Z,0.00
2022-08-29T01:05:43.130Z,0.00
2022-08-29T01:06:42.434Z,0.00
2022-08-29T01:07:43.119Z,0.00
2022-08-29T01:08:42.423Z,0.00
2022-08-29T01:09:44.848Z,0.00
2022-08-29T01:10:44.843Z,0.00
2022-08-29T01:11:42.363Z,0.00
2022-08-29T01:12:43.044Z,0.00
2022-08-29T01:13:42.372Z,0.00
2022-08-29T01:14:43.005Z,0.00
2022-08-29T01:15:43.024Z,0.00
2022-08-29T01:16:43.031Z,0.00
2022-08-29T01:17:43.000Z,0.00
2022-08-29T01:18:44.293Z,0.00
2022-08-29T01:19:42.297Z,0.00
2022-08-29T01:20:42.945Z,0.00
2022-08-29T01:21:42.336Z,0.00
2022-08-29T01:22:42.257Z,0.00
2022-08-29T01:23:42.934Z,0.00
2022-08-29T01:24:43.156Z,0.00
2022-08-29T01:25:42.230Z,0.00
2022-08-29T01:26:42.253Z,0.00
2022-08-29T01:27:42.888Z,0.00
2022-08-29T01:28:42.877Z,0.00
2022-08-29T01:29:42.250Z,0.00
2022-08-29T01:30:42.860Z,0.00
2022-08-29T01:31:55.919Z,0.00
2022-08-29T01:32:43.798Z,0.00
2022-08-29T01:33:44.616Z,0.00
2022-08-29T01:34:42.187Z,0.00
2022-08-29T01:35:42.160Z,0.00
2022-08-29T01:36:44.060Z,0.00
2022-08-29T01:37:42.128Z,0.00
2022-08-29T01:38:42.214Z,0.00
2022-08-29T01:39:42.784Z,0.00
2022-08-29T01:40:44.541Z,0.00
2022-08-29T01:41:42.100Z,0.00
2022-08-29T01:42:42.070Z,0.00
2022-08-29T01:43:42.710Z,0.00
2022-08-29T01:44:42.159Z,0.00
2022-08-29T01:45:42.782Z,0.00
2022-08-29T01:46:42.681Z,0.00
2022-08-29T01:47:42.674Z,0.00
2022-08-29T01:48:41.993Z,0.00
2022-08-29T01:49:41.991Z,0.00
2022-08-29T01:50:42.623Z,0.00
2022-08-29T01:51:42.625Z,0.00
2022-08-29T01:52:42.614Z,0.00
2022-08-29T01:53:42.107Z,0.00
2022-08-29T01:54:44.353Z,0.00
2022-08-29T01:55:42.578Z,0.00
2022-08-29T01:56:42.846Z,0.00
2022-08-29T01:57:41.904Z,0.00
2022-08-29T01:58:42.556Z,0.00
2022-08-29T01:59:42.547Z,0.00
2022-08-29T02:00:41.958Z,0.00
2022-08-29T02:01:41.890Z,0.00
2022-08-29T02:02:42.514Z,0.00
2022-08-29T02:03:42.497Z,0.00
2022-08-29T02:04:42.492Z,0.00
2022-08-29T02:05:41.797Z,0.00
2022-08-29T02:06:42.469Z,0.00
2022-08-29T02:07:41.766Z,0.00
2022-08-29T02:08:41.787Z,0.00
2022-08-29T02:09:45.789Z,0.00
2022-08-29T02:10:41.748Z,0.00
2022-08-29T02:11:41.730Z,0.00
2022-08-29T02:12:41.717Z,0.00
2022-08-29T02:13:41.708Z,0.00
2022-08-29T02:14:41.728Z,0.00
2022-08-29T02:15:43.098Z,0.00
2022-08-29T02:16:42.437Z,0.00
2022-08-29T02:17:41.681Z,0.00
2022-08-29T02:18:41.694Z,0.00
2022-08-29T02:19:42.321Z,0.00
2022-08-29T02:20:42.388Z,0.00
2022-08-29T02:21:42.300Z,0.00
2022-08-29T02:22:41.601Z,0.00
2022-08-29T02:23:41.600Z,0.00
2022-08-29T02:24:42.261Z,0.00
2022-08-29T02:25:41.566Z,0.00
2022-08-29T02:26:42.321Z,0.00
2022-08-29T02:27:43.342Z,0.00
2022-08-29T02:28:41.550Z,0.00
2022-08-29T02:29:42.221Z,0.00
2022-08-29T02:30:42.204Z,0.00
2022-08-29T02:31:42.228Z,0.00
2022-08-29T02:32:42.172Z,0.00
2022-08-29T02:33:41.492Z,0.00
2022-08-29T02:34:42.056Z,0.00
2022-08-29T02:35:42.871Z,0.00
2022-08-29T02:36:41.696Z,0.00
2022-08-29T02:37:41.458Z,0.00
2022-08-29T02:38:42.105Z,0.00
2022-08-29T02:39:42.104Z,0.00
2022-08-29T02:40:42.125Z,0.00
2022-08-29T02:41:42.242Z,0.00
2022-08-29T02:42:41.414Z,0.00
2022-08-29T02:43:42.064Z,0.00
2022-08-29T02:44:42.036Z,0.00
2022-08-29T02:45:41.345Z,0.00
2022-08-29T02:46:42.111Z,0.00
2022-08-29T02:47:41.336Z,0.00
2022-08-29T02:48:42.006Z,0.00
2022-08-29T02:49:44.266Z,0.00
2022-08-29T02:50:41.303Z,0.00
2022-08-29T02:51:41.286Z,0.00
2022-08-29T02:52:41.957Z,0.00
2022-08-29T02:53:41.948Z,0.00
2022-08-29T02:54:41.939Z,0.00
2022-08-29T02:55:41.927Z,0.00
2022-08-29T02:56:41.918Z,0.00
2022-08-29T02:57:41.910Z,0.00
2022-08-29T02:58:41.245Z,0.00
2022-08-29T02:59:41.879Z,0.00
2022-08-29T03:00:41.301Z,0.00
2022-08-29T03:01:41.322Z,0.00
2022-08-29T03:02:41.181Z,0.00
2022-08-29T03:03:41.958Z,0.00
2022-08-29T03:04:41.149Z,0.00
2022-08-29T03:05:41.759Z,0.00
2022-08-29T03:06:41.820Z,0.00
2022-08-29T03:07:41.789Z,0.00
2022-08-29T03:08:41.104Z,0.00
2022-08-29T03:09:41.131Z,0.00
2022-08-29T03:10:42.450Z,0.00
2022-08-29T03:11:41.769Z,0.00
2022-08-29T03:12:41.759Z,0.00
2022-08-29T03:13:41.091Z,0.00
2022-08-29T03:14:41.059Z,0.00
2022-08-29T03:15:41.712Z,0.00
2022-08-29T03:16:41.062Z,0.00
2022-08-29T03:17:41.025Z,0.00
2022-08-29T03:18:41.985Z,0.00
2022-08-29T03:19:41.654Z,0.00
2022-08-29T03:20:41.665Z,0.00
2022-08-29T03:21:41.652Z,0.00
2022-08-29T03:22:40.965Z,0.00
2022-08-29T03:23:41.623Z,0.00
2022-08-29T03:24:40.958Z,0.00
2022-08-29T03:25:41.603Z,0.00
2022-08-29T03:26:40.980Z,0.00
2022-08-29T03:27:40.904Z,0.00
2022-08-29T03:28:40.925Z,0.00
2022-08-29T03:29:40.945Z,0.00
2022-08-29T03:30:41.099Z,0.00
2022-08-29T03:31:41.650Z,0.00
2022-08-29T03:32:40.888Z,0.00
2022-08-29T03:33:41.526Z,0.00
2022-08-29T03:34:40.926Z,0.00
2022-08-29T03:35:40.896Z,0.00
2022-08-29T03:36:41.759Z,0.00
2022-08-29T03:37:40.867Z,0.00
2022-08-29T03:38:40.816Z,0.00
2022-08-29T03:39:40.767Z,0.00
2022-08-29T03:40:41.503Z,0.00
2022-08-29T03:41:41.159Z,0.00
2022-08-29T03:42:40.734Z,0.00
2022-08-29T03:43:41.421Z,0.00
2022-08-29T03:44:41.408Z,0.00
2022-08-29T03:45:40.780Z,0.00
2022-08-29T03:46:40.737Z,0.00
2022-08-29T03:47:41.621Z,0.00
2022-08-29T03:48:40.711Z,0.00
2022-08-29T03:49:41.561Z,0.00
2022-08-29T03:50:41.543Z,0.00
2022-08-29T03:51:41.339Z,0.00
2022-08-29T03:52:40.670Z,0.00
2022-08-29T03:53:41.827Z,0.00
2022-08-29T03:54:40.860Z,0.00
2022-08-29T03:55:40.903Z,0.00
2022-08-29T03:56:40.622Z,0.00
2022-08-29T03:57:41.271Z,0.00
2022-08-29T03:58:41.261Z,0.00
2022-08-29T03:59:40.731Z,0.00
2022-08-29T04:00:40.562Z,0.00
2022-08-29T04:01:42.685Z,0.00
2022-08-29T04:02:40.626Z,0.00
2022-08-29T04:03:40.592Z,0.00
2022-08-29T04:04:41.200Z,0.00
2022-08-29T04:05:40.503Z,0.00
2022-08-29T04:06:40.546Z,0.00
2022-08-29T04:07:40.646Z,0.00
2022-08-29T04:08:41.154Z,0.00
2022-08-29T04:09:41.144Z,0.00
2022-08-29T04:10:40.465Z,0.00
2022-08-29T04:11:41.122Z,0.00
2022-08-29T04:12:41.105Z,0.00
2022-08-29T04:13:41.394Z,0.00
2022-08-29T04:14:40.408Z,0.00
2022-08-29T04:15:41.107Z,0.00
2022-08-29T04:16:40.418Z,0.00
2022-08-29T04:17:52.703Z,0.00
2022-08-29T04:18:41.475Z,0.00
2022-08-29T04:19:40.436Z,0.00
2022-08-29T04:20:41.015Z,0.00
2022-08-29T04:21:41.747Z,0.00
2022-08-29T04:22:40.996Z,0.00
2022-08-29T04:23:40.984Z,0.00
2022-08-29T04:24:40.348Z,5.62
2022-08-29T04:25:40.323Z,5.62
2022-08-29T04:26:41.301Z,5.62
2022-08-29T04:27:40.947Z,5.62
2022-08-29T04:28:40.247Z,5.62
2022-08-29T04:29:40.916Z,5.62
2022-08-29T04:30:40.257Z,5.62
2022-08-29T04:31:40.955Z,5.62
2022-08-29T04:32:40.887Z,5.62
2022-08-29T04:33:41.639Z,5.62
2022-08-29T04:34:40.859Z,5.62
2022-08-29T04:35:40.170Z,11.25
2022-08-29T04:36:42.149Z,11.25
2022-08-29T04:37:40.831Z,11.25
2022-08-29T04:38:41.560Z,11.25
2022-08-29T04:39:40.150Z,11.25
2022-08-29T04:40:40.193Z,16.88
2022-08-29T04:41:40.133Z,16.88
2022-08-29T04:42:40.792Z,16.88
2022-08-29T04:43:40.151Z,22.50
2022-08-29T04:44:40.751Z,22.50
2022-08-29T04:45:40.075Z,22.50
2022-08-29T04:46:40.780Z,28.12
2022-08-29T04:47:40.092Z,28.12
2022-08-29T04:48:40.102Z,33.75
2022-08-29T04:49:40.049Z,33.75
2022-08-29T04:50:40.022Z,39.38
2022-08-29T04:51:40.682Z,39.38
2022-08-29T04:52:40.066Z,45.00
2022-08-29T04:53:40.512Z,45.00
2022-08-29T04:54:40.083Z,45.00
2022-08-29T04:55:40.635Z,50.62
2022-08-29T04:56:40.873Z,50.62
2022-08-29T04:57:40.994Z,50.62
2022-08-29T04:58:39.945Z,50.62
2022-08-29T04:59:40.603Z,50.62
2022-08-29T05:00:39.997Z,56.25
2022-08-29T05:01:40.655Z,56.25
2022-08-29T05:02:39.934Z,56.25
2022-08-29T05:03:39.875Z,56.25
2022-08-29T05:04:40.536Z,61.88
2022-08-29T05:05:39.857Z,61.88
2022-08-29T05:06:40.538Z,67.50
2022-08-29T05:07:40.508Z,67.50
2022-08-29T05:08:40.496Z,73.12
2022-08-29T05:09:40.477Z,78.75
2022-08-29T05:10:39.798Z,84.38
2022-08-29T05:11:40.458Z,90.00
2022-08-29T05:12:40.541Z,95.62
2022-08-29T05:13:42.626Z,95.62
2022-08-29T05:14:39.768Z,101.25
2022-08-29T05:15:39.778Z,106.88
2022-08-29T05:16:40.408Z,112.50
2022-08-29T05:17:40.398Z,118.12
2022-08-29T05:18:40.381Z,123.75
2022-08-29T05:19:44.972Z,129.38
2022-08-29T05:20:41.379Z,135.00
2022-08-29T05:21:40.353Z,140.62
2022-08-29T05:22:40.350Z,140.62
2022-08-29T05:23:40.331Z,146.25
2022-08-29T05:24:41.590Z,146.25
2022-08-29T05:25:40.310Z,146.25
2022-08-29T05:26:40.300Z,146.25
2022-08-29T05:27:40.290Z,146.25
2022-08-29T05:28:39.580Z,146.25
2022-08-29T05:29:40.264Z,146.25
2022-08-29T05:30:40.287Z,140.62
2022-08-29T05:31:39.622Z,140.62
2022-08-29T05:32:40.235Z,146.25
2022-08-29T05:33:39.625Z,151.88
2022-08-29T05:34:39.556Z,157.50
2022-08-29T05:35:39.611Z,163.12
2022-08-29T05:36:39.602Z,168.75
2022-08-29T05:37:39.515Z,185.62
2022-08-29T05:38:39.674Z,208.12
2022-08-29T05:39:39.524Z,230.62
2022-08-29T05:40:40.218Z,236.25
2022-08-29T05:41:39.543Z,241.88
2022-08-29T05:42:39.540Z,247.50
2022-08-29T05:43:39.614Z,258.75
2022-08-29T05:44:39.434Z,253.12
2022-08-29T05:45:40.099Z,275.62
2022-08-29T05:46:39.493Z,337.50
2022-08-29T05:47:39.395Z,410.62
2022-08-29T05:48:40.064Z,450.00
2022-08-29T05:49:40.056Z,613.12
2022-08-29T05:50:39.396Z,506.25
2022-08-29T05:51:40.087Z,511.88
2022-08-29T05:52:39.326Z,646.88
2022-08-29T05:53:39.333Z,821.25
2022-08-29T05:54:39.988Z,933.75
2022-08-29T05:55:39.993Z,781.88
2022-08-29T05:56:39.978Z,810.00
2022-08-29T05:57:41.011Z,759.38
2022-08-29T05:58:39.967Z,590.62
2022-08-29T05:59:39.281Z,568.12
2022-08-29T06:00:39.376Z,641.25
2022-08-29T06:01:39.928Z,652.50
2022-08-29T06:02:39.358Z,759.38
2022-08-29T06:03:44.139Z,742.50
2022-08-29T06:04:40.229Z,748.12
2022-08-29T06:05:39.898Z,624.38
2022-08-29T06:06:39.869Z,534.38
2022-08-29T06:07:39.870Z,556.88
2022-08-29T06:08:39.842Z,483.75
2022-08-29T06:09:39.190Z,596.25
2022-08-29T06:10:39.836Z,528.75
2022-08-29T06:11:39.205Z,427.50
2022-08-29T06:12:39.880Z,506.25
2022-08-29T06:13:39.151Z,483.75
2022-08-29T06:14:39.213Z,472.50
2022-08-29T06:15:39.174Z,506.25
2022-08-29T06:16:39.761Z,585.00
2022-08-29T06:17:39.108Z,551.25
2022-08-29T06:18:39.724Z,646.88
2022-08-29T06:19:39.081Z,590.62
2022-08-29T06:20:39.724Z,708.75
2022-08-29T06:21:39.065Z,703.12
2022-08-29T06:22:41.515Z,630.00
2022-08-29T06:23:39.686Z,551.25
2022-08-29T06:24:39.700Z,691.88
2022-08-29T06:25:40.472Z,641.25
2022-08-29T06:26:39.096Z,500.62
2022-08-29T06:27:38.992Z,416.25
2022-08-29T06:28:39.640Z,421.88
2022-08-29T06:29:43.033Z,438.75
2022-08-29T06:30:39.141Z,382.50
2022-08-29T06:31:39.614Z,393.75
2022-08-29T06:32:39.590Z,388.12
2022-08-29T06:33:38.941Z,416.25
2022-08-29T06:34:39.569Z,399.38
2022-08-29T06:35:38.921Z,382.50
2022-08-29T06:36:38.949Z,382.50
2022-08-29T06:37:38.912Z,388.12
2022-08-29T06:38:39.549Z,382.50
2022-08-29T06:39:39.513Z,376.88
2022-08-29T06:40:39.587Z,388.12
2022-08-29T06:41:39.492Z,455.62
2022-08-29T06:42:38.934Z,472.50
2022-08-29T06:43:38.783Z,517.50
2022-08-29T06:44:44.273Z,556.88
2022-08-29T06:45:40.462Z,579.38
2022-08-29T06:46:38.821Z,545.62
2022-08-29T06:47:38.845Z,495.00
2022-08-29T06:48:39.499Z,483.75
2022-08-29T06:49:39.403Z,416.25
2022-08-29T06:50:43.561Z,438.75
2022-08-29T06:51:40.386Z,444.38
2022-08-29T06:52:39.384Z,551.25
2022-08-29T06:53:39.714Z,630.00
2022-08-29T06:54:39.424Z,607.50
2022-08-29T06:55:38.689Z,613.12
2022-08-29T06:56:39.326Z,736.88
2022-08-29T06:57:39.579Z,1006.88
2022-08-29T06:58:38.627Z,1096.88
2022-08-29T06:59:41.066Z,984.38
2022-08-29T07:00:39.292Z,1057.50
2022-08-29T07:01:39.334Z,1113.75
2022-08-29T07:02:40.620Z,905.62
2022-08-29T07:03:38.577Z,601.88
2022-08-29T07:04:39.509Z,691.88
2022-08-29T07:05:39.239Z,624.38
2022-08-29T07:06:39.223Z,573.75
2022-08-29T07:07:38.538Z,618.75
2022-08-29T07:08:43.698Z,607.50
2022-08-29T07:09:40.333Z,568.12
2022-08-29T07:10:39.185Z,523.12
2022-08-29T07:11:41.318Z,511.88
2022-08-29T07:12:39.163Z,483.75
2022-08-29T07:13:39.151Z,489.38
2022-08-29T07:14:39.150Z,466.88
2022-08-29T07:15:39.197Z,461.25
2022-08-29T07:16:39.123Z,483.75
2022-08-29T07:17:39.112Z,472.50
2022-08-29T07:18:39.093Z,461.25
2022-08-29T07:19:39.086Z,472.50
2022-08-29T07:20:39.092Z,523.12
2022-08-29T07:21:38.421Z,556.88
2022-08-29T07:22:38.744Z,562.50
2022-08-29T07:23:39.046Z,691.88
2022-08-29T07:24:38.424Z,686.25
2022-08-29T07:25:39.035Z,663.75
2022-08-29T07:26:38.345Z,686.25
2022-08-29T07:27:38.998Z,675.00
2022-08-29T07:28:38.521Z,613.12
2022-08-29T07:29:38.374Z,551.25
2022-08-29T07:30:38.436Z,517.50
2022-08-29T07:31:38.317Z,489.38
2022-08-29T07:32:38.269Z,466.88
2022-08-29T07:33:38.307Z,427.50
2022-08-29T07:34:38.928Z,410.62
2022-08-29T07:35:38.259Z,326.25
2022-08-29T07:36:38.258Z,253.12
2022-08-29T07:37:38.891Z,208.12
2022-08-29T07:38:38.241Z,185.62
2022-08-29T07:39:38.190Z,163.12
2022-08-29T07:40:38.258Z,146.25
2022-08-29T07:41:40.089Z,140.62
2022-08-29T07:42:38.821Z,140.62
2022-08-29T07:43:38.177Z,140.62
2022-08-29T07:44:38.812Z,146.25
2022-08-29T07:45:38.221Z,157.50
2022-08-29T07:46:38.791Z,168.75
2022-08-29T07:47:38.118Z,185.62
2022-08-29T07:48:38.864Z,191.25
2022-08-29T07:49:41.314Z,202.50
2022-08-29T07:50:38.753Z,213.75
2022-08-29T07:51:38.746Z,208.12
2022-08-29T07:52:39.052Z,196.88
2022-08-29T07:53:38.160Z,213.75
2022-08-29T07:54:39.086Z,196.88
2022-08-29T07:55:39.468Z,185.62
2022-08-29T07:56:38.687Z,185.62
2022-08-29T07:57:39.984Z,174.38
2022-08-29T07:58:37.987Z,180.00
2022-08-29T07:59:38.652Z,185.62
2022-08-29T08:00:38.636Z,180.00
2022-08-29T08:01:38.032Z,174.38
2022-08-29T08:02:38.688Z,191.25
2022-08-29T08:03:38.611Z,191.25
2022-08-29T08:04:38.611Z,196.88
2022-08-29T08:05:38.598Z,202.50
2022-08-29T08:06:38.647Z,219.38
2022-08-29T08:07:40.358Z,241.88
2022-08-29T08:08:38.000Z,258.75
2022-08-29T08:09:38.551Z,270.00
2022-08-29T08:10:40.320Z,292.50
2022-08-29T08:11:38.535Z,320.62
2022-08-29T08:12:38.500Z,348.75
2022-08-29T08:13:38.503Z,405.00
2022-08-29T08:14:38.781Z,613.12
2022-08-29T08:15:40.237Z,2655.00
2022-08-29T08:16:37.936Z,2283.75
2022-08-29T08:17:40.936Z,2446.88
2022-08-29T08:18:39.514Z,2334.38
2022-08-29T08:19:38.443Z,2148.75
2022-08-29T08:20:37.795Z,2160.00
2022-08-29T08:21:37.754Z,1918.12
2022-08-29T08:22:38.774Z,2216.25
2022-08-29T08:23:37.804Z,2390.62
2022-08-29T08:24:38.383Z,2261.25
2022-08-29T08:25:38.376Z,2272.50
2022-08-29T08:26:37.717Z,2283.75
2022-08-29T08:27:42.190Z,2334.38
2022-08-29T08:28:38.656Z,2160.00
2022-08-29T08:29:38.346Z,1951.88
2022-08-29T08:30:38.751Z,1901.25
2022-08-29T08:31:38.353Z,1805.62
2022-08-29T08:32:37.697Z,1743.75
2022-08-29T08:33:37.877Z,1625.62
2022-08-29T08:34:38.280Z,1636.88
2022-08-29T08:35:37.830Z,1732.50
2022-08-29T08:36:40.993Z,1940.62
2022-08-29T08:37:37.587Z,1935.00
2022-08-29T08:38:37.558Z,1901.25
2022-08-29T08:39:37.614Z,1850.62
2022-08-29T08:40:37.640Z,2041.88
2022-08-29T08:41:38.200Z,2250.00
2022-08-29T08:42:37.570Z,2221.88
2022-08-29T08:43:38.181Z,2075.62
2022-08-29T08:44:37.504Z,1991.25
2022-08-29T08:45:37.593Z,2188.12
2022-08-29T08:46:38.194Z,2013.75
2022-08-29T08:47:37.472Z,1417.50
2022-08-29T08:48:37.474Z,663.75
2022-08-29T08:49:37.449Z,1158.75
2022-08-29T08:50:37.479Z,860.62
2022-08-29T08:51:38.100Z,787.50
2022-08-29T08:52:38.525Z,855.00
2022-08-29T08:53:37.395Z,776.25
2022-08-29T08:54:37.415Z,601.88
2022-08-29T08:55:37.365Z,540.00
2022-08-29T08:56:38.049Z,635.62
2022-08-29T08:57:38.292Z,444.38
2022-08-29T08:58:38.038Z,388.12
2022-08-29T08:59:38.016Z,405.00
2022-08-29T09:00:37.357Z,472.50
2022-08-29T09:01:39.805Z,472.50
2022-08-29T09:02:37.380Z,455.62
2022-08-29T09:03:38.245Z,405.00
2022-08-29T09:04:38.223Z,382.50
2022-08-29T09:05:38.001Z,365.62
2022-08-29T09:06:38.233Z,371.25
2022-08-29T09:07:39.684Z,405.00
2022-08-29T09:08:37.229Z,410.62
2022-08-29T09:09:38.642Z,399.38
2022-08-29T09:10:37.276Z,450.00
2022-08-29T09:11:37.901Z,506.25
2022-08-29T09:12:37.890Z,523.12
2022-08-29T09:13:37.249Z,534.38
2022-08-29T09:14:37.852Z,528.75
2022-08-29T09:15:37.844Z,500.62
2022-08-29T09:16:37.883Z,478.12
2022-08-29T09:17:37.822Z,478.12
2022-08-29T09:18:37.183Z,483.75
2022-08-29T09:19:37.805Z,495.00
2022-08-29T09:20:37.796Z,478.12
2022-08-29T09:21:40.913Z,472.50
2022-08-29T09:22:37.772Z,466.88
2022-08-29T09:23:37.754Z,466.88
2022-08-29T09:24:39.537Z,466.88
2022-08-29T09:25:38.996Z,495.00
2022-08-29T09:26:37.038Z,523.12
2022-08-29T09:27:37.716Z,568.12
2022-08-29T09:28:37.208Z,607.50
2022-08-29T09:29:37.732Z,641.25
2022-08-29T09:30:37.768Z,618.75
2022-08-29T09:31:37.056Z,601.88
2022-08-29T09:32:36.981Z,562.50
2022-08-29T09:33:36.981Z,568.12
2022-08-29T09:35:04.338Z,601.88
2022-08-29T09:35:37.974Z,590.62
2022-08-29T09:36:36.960Z,585.00
2022-08-29T09:37:37.611Z,596.25
2022-08-29T09:38:37.603Z,658.12
2022-08-29T09:39:36.947Z,708.75
2022-08-29T09:40:37.609Z,703.12
2022-08-29T09:41:36.952Z,691.88
2022-08-29T09:42:37.561Z,641.25
2022-08-29T09:43:36.863Z,534.38
2022-08-29T09:44:37.541Z,613.12
2022-08-29T09:45:37.559Z,658.12
2022-08-29T09:46:37.518Z,697.50
2022-08-29T09:47:37.577Z,742.50
2022-08-29T09:48:37.509Z,680.62
2022-08-29T09:49:37.735Z,641.25
2022-08-29T09:50:37.463Z,562.50
2022-08-29T09:51:36.815Z,517.50
2022-08-29T09:52:36.786Z,528.75
2022-08-29T09:53:37.517Z,540.00
2022-08-29T09:54:37.168Z,579.38
2022-08-29T09:55:37.419Z,585.00
2022-08-29T09:56:36.729Z,613.12
2022-08-29T09:57:36.748Z,579.38
2022-08-29T09:58:39.935Z,680.62
2022-08-29T09:59:37.377Z,624.38
2022-08-29T10:00:36.831Z,641.25
2022-08-29T10:01:37.330Z,635.62
2022-08-29T10:02:37.455Z,613.12
2022-08-29T10:03:36.661Z,635.62
2022-08-29T10:04:37.333Z,624.38
2022-08-29T10:05:39.115Z,630.00
2022-08-29T10:06:40.080Z,652.50
2022-08-29T10:07:39.033Z,703.12
2022-08-29T10:08:37.284Z,635.62
2022-08-29T10:09:36.631Z,646.88
2022-08-29T10:10:38.515Z,658.12
2022-08-29T10:11:36.693Z,613.12
2022-08-29T10:12:36.555Z,731.25
2022-08-29T10:13:36.572Z,680.62
2022-08-29T10:14:37.224Z,534.38
2022-08-29T10:15:50.426Z,540.00
2022-08-29T10:16:38.996Z,455.62
2022-08-29T10:17:37.178Z,495.00
2022-08-29T10:18:37.178Z,596.25
2022-08-29T10:19:36.477Z,585.00
2022-08-29T10:20:37.158Z,556.88
2022-08-29T10:21:37.147Z,630.00
2022-08-29T10:22:36.574Z,675.00
2022-08-29T10:23:36.444Z,573.75
2022-08-29T10:24:37.116Z,686.25
2022-08-29T10:25:37.101Z,556.88
2022-08-29T10:26:37.089Z,585.00
2022-08-29T10:27:36.390Z,669.38
2022-08-29T10:28:37.068Z,613.12
2022-08-29T10:29:36.400Z,618.75
2022-08-29T10:30:37.052Z,590.62
2022-08-29T10:31:38.838Z,573.75
2022-08-29T10:32:36.381Z,607.50
2022-08-29T10:33:37.013Z,624.38
2022-08-29T10:34:36.345Z,933.75
2022-08-29T10:35:37.015Z,1715.62
2022-08-29T10:36:36.307Z,3105.00
2022-08-29T10:37:37.000Z,1383.75
2022-08-29T10:38:36.280Z,624.38
2022-08-29T10:39:36.279Z,635.62
2022-08-29T10:40:37.003Z,573.75
2022-08-29T10:41:36.949Z,495.00
2022-08-29T10:42:36.926Z,455.62
2022-08-29T10:43:36.919Z,438.75
2022-08-29T10:44:36.899Z,472.50
2022-08-29T10:45:37.732Z,506.25
2022-08-29T10:46:36.877Z,534.38
2022-08-29T10:47:36.868Z,562.50
2022-08-29T10:48:36.867Z,534.38
2022-08-29T10:49:36.206Z,495.00
2022-08-29T10:50:45.372Z,433.12
2022-08-29T10:51:37.898Z,405.00
2022-08-29T10:52:36.823Z,388.12
2022-08-29T10:53:36.112Z,371.25
2022-08-29T10:54:36.149Z,365.62
2022-08-29T10:55:36.110Z,371.25
2022-08-29T10:56:36.193Z,388.12
2022-08-29T10:57:36.763Z,393.75
2022-08-29T10:58:36.064Z,388.12
2022-08-29T10:59:36.176Z,382.50
2022-08-29T11:00:36.128Z,382.50
2022-08-29T11:01:38.020Z,399.38
2022-08-29T11:02:37.486Z,405.00
2022-08-29T11:03:36.724Z,455.62
2022-08-29T11:04:35.995Z,495.00
2022-08-29T11:05:36.018Z,495.00
2022-08-29T11:07:36.655Z,517.50
2022-08-29T11:08:36.646Z,540.00
2022-08-29T11:09:36.145Z,534.38
2022-08-29T11:10:36.630Z,489.38
2022-08-29T11:11:36.610Z,466.88
2022-08-29T11:12:36.597Z,455.62
2022-08-29T11:13:35.920Z,438.75
2022-08-29T11:14:36.578Z,410.62
2022-08-29T11:15:35.941Z,416.25
2022-08-29T11:16:35.988Z,416.25
2022-08-29T11:17:36.581Z,438.75
2022-08-29T11:18:38.279Z,450.00
2022-08-29T11:19:36.519Z,455.62
2022-08-29T11:20:36.530Z,427.50
2022-08-29T11:21:36.446Z,427.50
2022-08-29T11:22:36.750Z,455.62
2022-08-29T11:23:36.504Z,455.62
2022-08-29T11:24:38.107Z,438.75
2022-08-29T11:25:36.483Z,416.25
2022-08-29T11:26:36.453Z,410.62
2022-08-29T11:27:36.431Z,410.62
2022-08-29T11:28:36.335Z,433.12
2022-08-29T11:29:36.426Z,489.38
2022-08-29T11:30:40.273Z,517.50
2022-08-29T11:31:36.732Z,511.88
2022-08-29T11:32:36.023Z,528.75
2022-08-29T11:33:35.708Z,534.38
2022-08-29T11:34:36.396Z,511.88
2022-08-29T11:35:36.999Z,506.25
2022-08-29T11:36:35.671Z,483.75
2022-08-29T11:37:36.349Z,461.25
2022-08-29T11:38:35.638Z,450.00
2022-08-29T11:39:35.655Z,455.62
2022-08-29T11:41:37.344Z,455.62
2022-08-29T11:42:52.171Z,450.00
2022-08-29T11:43:38.509Z,433.12
2022-08-29T11:44:35.568Z,433.12
2022-08-29T11:45:37.391Z,472.50
2022-08-29T11:46:36.307Z,461.25
2022-08-29T11:47:40.457Z,444.38
2022-08-29T11:48:37.207Z,416.25
2022-08-29T11:49:36.430Z,416.25
2022-08-29T11:50:35.512Z,393.75
2022-08-29T11:51:36.280Z,382.50
2022-08-29T11:52:36.180Z,376.88
2022-08-29T11:53:36.165Z,371.25
2022-08-29T11:54:36.151Z,365.62
2022-08-29T11:55:36.143Z,365.62
2022-08-29T11:56:35.451Z,382.50
2022-08-29T11:57:36.131Z,393.75
2022-08-29T11:58:36.127Z,410.62
2022-08-29T11:59:36.114Z,433.12
2022-08-29T12:00:36.095Z,433.12
2022-08-29T12:01:37.385Z,427.50
2022-08-29T12:02:36.067Z,416.25
2022-08-29T12:03:37.936Z,382.50
2022-08-29T12:04:36.079Z,382.50
2022-08-29T12:05:36.044Z,399.38
2022-08-29T12:06:36.027Z,438.75
2022-08-29T12:07:35.334Z,461.25
2022-08-29T12:08:37.579Z,450.00
2022-08-29T12:09:37.798Z,433.12
2022-08-29T12:10:36.033Z,438.75
2022-08-29T12:11:35.299Z,433.12
2022-08-29T12:12:35.973Z,421.88
2022-08-29T12:13:35.957Z,433.12
2022-08-29T12:14:37.893Z,466.88
2022-08-29T12:15:35.279Z,478.12
2022-08-29T12:16:35.969Z,478.12
2022-08-29T12:17:58.127Z,466.88
2022-08-29T12:18:37.052Z,472.50
2022-08-29T12:19:35.261Z,466.88
2022-08-29T12:20:35.190Z,466.88
2022-08-29T12:21:35.213Z,455.62
2022-08-29T12:22:35.219Z,450.00
2022-08-29T12:23:36.482Z,455.62
2022-08-29T12:24:35.831Z,455.62
2022-08-29T12:25:35.150Z,461.25
2022-08-29T12:26:35.817Z,472.50
2022-08-29T12:27:35.885Z,517.50
2022-08-29T12:28:35.127Z,528.75
2022-08-29T12:29:43.697Z,534.38
2022-08-29T12:30:37.526Z,534.38
2022-08-29T12:31:35.792Z,517.50
2022-08-29T12:32:35.117Z,495.00
2022-08-29T12:33:35.734Z,478.12
2022-08-29T12:34:36.537Z,455.62
2022-08-29T12:35:35.712Z,444.38
2022-08-29T12:36:35.049Z,438.75
2022-08-29T12:37:36.930Z,433.12
2022-08-29T12:38:40.041Z,433.12
2022-08-29T12:39:36.144Z,388.12
2022-08-29T12:40:35.742Z,382.50
2022-08-29T12:41:35.654Z,360.00
2022-08-29T12:42:35.022Z,337.50
2022-08-29T12:43:34.993Z,343.12
2022-08-29T12:44:35.626Z,365.62
2022-08-29T12:45:35.592Z,393.75
2022-08-29T12:46:35.688Z,438.75
2022-08-29T12:47:35.584Z,410.62